sensor_id;sensor_type;location;lat;lon;timestamp;P1;durP1;ratioP1;P2;durP2;ratioP2
10144;SDS011;5113;41.822;23.564;2022-11-27T00:01:28;27.10;;;8.60;;
10144;SDS011;5113;41.822;23.564;2022-11-27T00:04:36;22.43;;;10.93;;
10144;SDS011;5113;41.822;23.564;2022-11-27T00:07:43;23.57;;;9.97;;
10144;SDS011;5113;41.822;23.564;2022-11-27T00:10:51;18.57;;;9.73;;
10144;SDS011;5113;41.822;23.564;2022-11-27T00:13:57;27.80;;;15.40;;
10144;SDS011;5113;41.822;23.564;2022-11-27T00:17:04;25.13;;;14.23;;
10144;SDS011;5113;41.822;23.564;2022-11-27T00:20:11;33.43;;;15.83;;
10144;SDS011;5113;41.822;23.564;2022-11-27T00:23:18;18.70;;;9.07;;
10144;SDS011;5113;41.822;23.564;2022-11-27T00:26:37;27.27;;;12.50;;
10144;SDS011;5113;41.822;23.564;2022-11-27T00:29:43;32.67;;;15.93;;
10144;SDS011;5113;41.822;23.564;2022-11-27T00:33:03;26.77;;;12.90;;
10144;SDS011;5113;41.822;23.564;2022-11-27T00:36:10;20.40;;;11.63;;
10144;SDS011;5113;41.822;23.564;2022-11-27T00:39:31;30.27;;;14.10;;
10144;SDS011;5113;41.822;23.564;2022-11-27T00:42:38;22.40;;;11.93;;
10144;SDS011;5113;41.822;23.564;2022-11-27T00:45:47;21.97;;;12.40;;
10144;SDS011;5113;41.822;23.564;2022-11-27T00:48:54;31.60;;;15.30;;
10144;SDS011;5113;41.822;23.564;2022-11-27T00:52:00;22.87;;;10.97;;
10144;SDS011;5113;41.822;23.564;2022-11-27T00:55:07;24.73;;;11.90;;
10144;SDS011;5113;41.822;23.564;2022-11-27T00:58:15;21.47;;;10.77;;
10144;SDS011;5113;41.822;23.564;2022-11-27T01:01:22;30.93;;;13.17;;
10144;SDS011;5113;41.822;23.564;2022-11-27T01:04:29;18.60;;;12.10;;
10144;SDS011;5113;41.822;23.564;2022-11-27T01:07:36;14.17;;;8.00;;
10144;SDS011;5113;41.822;23.564;2022-11-27T01:10:46;16.20;;;10.07;;
10144;SDS011;5113;41.822;23.564;2022-11-27T01:14:01;13.67;;;8.30;;
10144;SDS011;5113;41.822;23.564;2022-11-27T01:17:08;10.93;;;7.67;;
10144;SDS011;5113;41.822;23.564;2022-11-27T01:20:14;16.63;;;8.33;;
10144;SDS011;5113;41.822;23.564;2022-11-27T01:23:20;15.87;;;8.40;;
10144;SDS011;5113;41.822;23.564;2022-11-27T01:26:28;13.60;;;9.97;;
10144;SDS011;5113;41.822;23.564;2022-11-27T01:29:36;15.93;;;8.60;;
10144;SDS011;5113;41.822;23.564;2022-11-27T01:32:42;11.37;;;8.13;;
10144;SDS011;5113;41.822;23.564;2022-11-27T01:35:52;8.90;;;7.60;;
10144;SDS011;5113;41.822;23.564;2022-11-27T01:39:00;11.33;;;8.60;;
10144;SDS011;5113;41.822;23.564;2022-11-27T01:42:08;16.83;;;7.63;;
10144;SDS011;5113;41.822;23.564;2022-11-27T01:45:18;18.13;;;9.67;;
10144;SDS011;5113;41.822;23.564;2022-11-27T01:48:26;18.47;;;9.73;;
10144;SDS011;5113;41.822;23.564;2022-11-27T01:51:32;11.83;;;8.13;;
10144;SDS011;5113;41.822;23.564;2022-11-27T01:54:40;12.00;;;7.13;;
10144;SDS011;5113;41.822;23.564;2022-11-27T01:57:52;14.63;;;9.37;;
10144;SDS011;5113;41.822;23.564;2022-11-27T02:01:02;15.37;;;9.77;;
10144;SDS011;5113;41.822;23.564;2022-11-27T02:04:09;21.27;;;10.83;;
10144;SDS011;5113;41.822;23.564;2022-11-27T02:07:16;20.93;;;10.17;;
10144;SDS011;5113;41.822;23.564;2022-11-27T02:10:24;12.77;;;8.20;;
10144;SDS011;5113;41.822;23.564;2022-11-27T02:13:38;12.13;;;7.70;;
10144;SDS011;5113;41.822;23.564;2022-11-27T02:17:04;15.67;;;8.90;;
10144;SDS011;5113;41.822;23.564;2022-11-27T02:20:24;14.03;;;8.27;;
10144;SDS011;5113;41.822;23.564;2022-11-27T02:23:57;15.27;;;9.17;;
10144;SDS011;5113;41.822;23.564;2022-11-27T02:31:10;11.00;;;8.97;;
10144;SDS011;5113;41.822;23.564;2022-11-27T02:34:21;12.97;;;10.27;;
10144;SDS011;5113;41.822;23.564;2022-11-27T02:37:32;16.73;;;10.00;;
10144;SDS011;5113;41.822;23.564;2022-11-27T02:40:44;14.13;;;9.30;;
10144;SDS011;5113;41.822;23.564;2022-11-27T02:43:56;20.53;;;11.43;;
10144;SDS011;5113;41.822;23.564;2022-11-27T02:47:06;23.43;;;10.17;;
10144;SDS011;5113;41.822;23.564;2022-11-27T02:50:15;25.43;;;13.30;;
10144;SDS011;5113;41.822;23.564;2022-11-27T02:53:38;27.20;;;15.23;;
10144;SDS011;5113;41.822;23.564;2022-11-27T02:56:49;36.33;;;16.63;;
10144;SDS011;5113;41.822;23.564;2022-11-27T02:59:57;38.10;;;14.77;;
10144;SDS011;5113;41.822;23.564;2022-11-27T03:03:07;25.90;;;12.47;;
10144;SDS011;5113;41.822;23.564;2022-11-27T03:06:17;35.37;;;12.60;;
10144;SDS011;5113;41.822;23.564;2022-11-27T03:09:26;34.83;;;13.13;;
10144;SDS011;5113;41.822;23.564;2022-11-27T03:12:37;25.83;;;12.00;;
10144;SDS011;5113;41.822;23.564;2022-11-27T03:15:44;20.33;;;8.70;;
10144;SDS011;5113;41.822;23.564;2022-11-27T03:19:03;16.33;;;9.20;;
10144;SDS011;5113;41.822;23.564;2022-11-27T03:22:17;16.43;;;9.13;;
10144;SDS011;5113;41.822;23.564;2022-11-27T03:25:23;18.57;;;9.87;;
10144;SDS011;5113;41.822;23.564;2022-11-27T03:28:30;15.53;;;10.77;;
10144;SDS011;5113;41.822;23.564;2022-11-27T03:31:37;11.27;;;8.60;;
10144;SDS011;5113;41.822;23.564;2022-11-27T03:34:45;33.43;;;14.47;;
10144;SDS011;5113;41.822;23.564;2022-11-27T03:37:52;26.43;;;11.33;;
10144;SDS011;5113;41.822;23.564;2022-11-27T03:41:01;22.60;;;13.70;;
10144;SDS011;5113;41.822;23.564;2022-11-27T03:44:15;33.80;;;14.40;;
10144;SDS011;5113;41.822;23.564;2022-11-27T03:47:34;59.00;;;27.53;;
10144;SDS011;5113;41.822;23.564;2022-11-27T03:50:58;31.43;;;17.53;;
10144;SDS011;5113;41.822;23.564;2022-11-27T03:54:11;41.23;;;21.07;;
10144;SDS011;5113;41.822;23.564;2022-11-27T03:57:30;55.17;;;21.97;;
10144;SDS011;5113;41.822;23.564;2022-11-27T04:00:41;47.37;;;23.13;;
10144;SDS011;5113;41.822;23.564;2022-11-27T04:03:49;33.80;;;15.90;;
10144;SDS011;5113;41.822;23.564;2022-11-27T04:06:57;25.73;;;14.67;;
10144;SDS011;5113;41.822;23.564;2022-11-27T04:10:17;30.00;;;16.83;;
10144;SDS011;5113;41.822;23.564;2022-11-27T04:13:24;30.13;;;13.97;;
10144;SDS011;5113;41.822;23.564;2022-11-27T04:16:30;34.17;;;17.40;;
10144;SDS011;5113;41.822;23.564;2022-11-27T04:19:36;16.37;;;12.07;;
10144;SDS011;5113;41.822;23.564;2022-11-27T04:22:44;21.60;;;15.50;;
10144;SDS011;5113;41.822;23.564;2022-11-27T04:25:50;22.30;;;14.57;;
10144;SDS011;5113;41.822;23.564;2022-11-27T04:28:56;16.03;;;11.37;;
10144;SDS011;5113;41.822;23.564;2022-11-27T04:32:03;15.77;;;11.00;;
10144;SDS011;5113;41.822;23.564;2022-11-27T04:35:09;22.33;;;12.37;;
10144;SDS011;5113;41.822;23.564;2022-11-27T04:38:17;23.67;;;14.47;;
10144;SDS011;5113;41.822;23.564;2022-11-27T04:41:24;19.50;;;13.07;;
10144;SDS011;5113;41.822;23.564;2022-11-27T04:44:31;26.63;;;13.93;;
10144;SDS011;5113;41.822;23.564;2022-11-27T04:47:38;22.87;;;13.80;;
10144;SDS011;5113;41.822;23.564;2022-11-27T04:50:44;31.07;;;13.80;;
10144;SDS011;5113;41.822;23.564;2022-11-27T04:53:52;51.10;;;24.07;;
10144;SDS011;5113;41.822;23.564;2022-11-27T04:56:58;45.97;;;26.60;;
10144;SDS011;5113;41.822;23.564;2022-11-27T05:00:05;40.47;;;20.10;;
10144;SDS011;5113;41.822;23.564;2022-11-27T05:03:12;42.47;;;19.93;;
10144;SDS011;5113;41.822;23.564;2022-11-27T05:06:18;44.70;;;21.67;;
10144;SDS011;5113;41.822;23.564;2022-11-27T05:09:28;48.80;;;28.13;;
10144;SDS011;5113;41.822;23.564;2022-11-27T05:12:34;45.20;;;24.57;;
10144;SDS011;5113;41.822;23.564;2022-11-27T05:15:55;39.67;;;19.67;;
10144;SDS011;5113;41.822;23.564;2022-11-27T05:19:01;35.40;;;16.87;;
10144;SDS011;5113;41.822;23.564;2022-11-27T05:22:07;55.73;;;26.63;;
10144;SDS011;5113;41.822;23.564;2022-11-27T05:25:15;39.07;;;25.27;;
10144;SDS011;5113;41.822;23.564;2022-11-27T05:28:22;37.07;;;21.47;;
10144;SDS011;5113;41.822;23.564;2022-11-27T05:31:30;26.67;;;16.50;;
10144;SDS011;5113;41.822;23.564;2022-11-27T05:34:37;30.30;;;18.30;;
10144;SDS011;5113;41.822;23.564;2022-11-27T05:37:43;33.73;;;18.30;;
10144;SDS011;5113;41.822;23.564;2022-11-27T05:40:51;38.83;;;20.23;;
10144;SDS011;5113;41.822;23.564;2022-11-27T05:43:57;50.57;;;26.67;;
10144;SDS011;5113;41.822;23.564;2022-11-27T05:47:03;42.53;;;21.80;;
10144;SDS011;5113;41.822;23.564;2022-11-27T05:50:10;54.73;;;25.77;;
10144;SDS011;5113;41.822;23.564;2022-11-27T05:53:16;56.30;;;26.70;;
10144;SDS011;5113;41.822;23.564;2022-11-27T05:56:24;44.67;;;23.70;;
10144;SDS011;5113;41.822;23.564;2022-11-27T05:59:30;49.27;;;19.03;;
10144;SDS011;5113;41.822;23.564;2022-11-27T06:02:36;46.13;;;23.63;;
10144;SDS011;5113;41.822;23.564;2022-11-27T06:05:43;27.40;;;18.60;;
10144;SDS011;5113;41.822;23.564;2022-11-27T06:08:49;27.97;;;18.30;;
10144;SDS011;5113;41.822;23.564;2022-11-27T06:11:57;27.33;;;15.83;;
10144;SDS011;5113;41.822;23.564;2022-11-27T06:15:03;52.00;;;25.57;;
10144;SDS011;5113;41.822;23.564;2022-11-27T06:18:10;31.20;;;19.30;;
10144;SDS011;5113;41.822;23.564;2022-11-27T06:21:17;37.47;;;21.23;;
10144;SDS011;5113;41.822;23.564;2022-11-27T06:24:24;49.87;;;25.20;;
10144;SDS011;5113;41.822;23.564;2022-11-27T06:27:33;38.50;;;24.50;;
10144;SDS011;5113;41.822;23.564;2022-11-27T06:30:39;72.63;;;34.73;;
10144;SDS011;5113;41.822;23.564;2022-11-27T06:33:46;78.63;;;34.03;;
10144;SDS011;5113;41.822;23.564;2022-11-27T06:36:53;28.63;;;19.57;;
10144;SDS011;5113;41.822;23.564;2022-11-27T06:39:59;195.00;;;71.13;;
10144;SDS011;5113;41.822;23.564;2022-11-27T06:43:07;45.03;;;23.20;;
10144;SDS011;5113;41.822;23.564;2022-11-27T06:46:14;37.33;;;22.10;;
10144;SDS011;5113;41.822;23.564;2022-11-27T06:49:22;48.43;;;24.50;;
10144;SDS011;5113;41.822;23.564;2022-11-27T06:52:29;34.53;;;17.80;;
10144;SDS011;5113;41.822;23.564;2022-11-27T06:55:48;34.87;;;17.27;;
10144;SDS011;5113;41.822;23.564;2022-11-27T06:58:56;31.87;;;17.83;;
10144;SDS011;5113;41.822;23.564;2022-11-27T07:02:04;26.97;;;16.30;;
10144;SDS011;5113;41.822;23.564;2022-11-27T07:05:11;33.73;;;18.83;;
10144;SDS011;5113;41.822;23.564;2022-11-27T07:08:17;25.20;;;17.13;;
10144;SDS011;5113;41.822;23.564;2022-11-27T07:11:24;31.40;;;19.23;;
10144;SDS011;5113;41.822;23.564;2022-11-27T07:14:33;23.50;;;15.23;;
10144;SDS011;5113;41.822;23.564;2022-11-27T07:17:39;35.00;;;19.17;;
10144;SDS011;5113;41.822;23.564;2022-11-27T07:20:49;41.53;;;23.00;;
10144;SDS011;5113;41.822;23.564;2022-11-27T07:24:00;28.27;;;18.07;;
10144;SDS011;5113;41.822;23.564;2022-11-27T07:27:06;38.33;;;16.30;;
10144;SDS011;5113;41.822;23.564;2022-11-27T07:30:14;17.17;;;13.40;;
10144;SDS011;5113;41.822;23.564;2022-11-27T07:33:20;22.90;;;13.37;;
10144;SDS011;5113;41.822;23.564;2022-11-27T07:36:27;25.00;;;14.57;;
10144;SDS011;5113;41.822;23.564;2022-11-27T07:39:35;41.27;;;21.43;;
10144;SDS011;5113;41.822;23.564;2022-11-27T07:43:01;48.20;;;25.27;;
10144;SDS011;5113;41.822;23.564;2022-11-27T07:46:10;31.40;;;17.30;;
10144;SDS011;5113;41.822;23.564;2022-11-27T07:49:18;20.73;;;15.13;;
10144;SDS011;5113;41.822;23.564;2022-11-27T07:52:25;29.67;;;11.30;;
10144;SDS011;5113;41.822;23.564;2022-11-27T07:55:31;18.90;;;10.50;;
10144;SDS011;5113;41.822;23.564;2022-11-27T07:58:38;16.30;;;12.27;;
10144;SDS011;5113;41.822;23.564;2022-11-27T08:01:46;24.83;;;14.53;;
10144;SDS011;5113;41.822;23.564;2022-11-27T08:04:52;18.73;;;12.27;;
10144;SDS011;5113;41.822;23.564;2022-11-27T08:08:16;19.30;;;12.03;;
10144;SDS011;5113;41.822;23.564;2022-11-27T08:11:23;29.00;;;16.33;;
10144;SDS011;5113;41.822;23.564;2022-11-27T08:14:33;10.47;;;7.10;;
10144;SDS011;5113;41.822;23.564;2022-11-27T08:17:41;17.70;;;11.07;;
10144;SDS011;5113;41.822;23.564;2022-11-27T08:20:47;12.60;;;8.53;;
10144;SDS011;5113;41.822;23.564;2022-11-27T08:23:54;14.00;;;8.33;;
10144;SDS011;5113;41.822;23.564;2022-11-27T08:27:02;13.37;;;8.20;;
10144;SDS011;5113;41.822;23.564;2022-11-27T08:30:08;14.83;;;11.27;;
10144;SDS011;5113;41.822;23.564;2022-11-27T08:33:16;78.53;;;30.83;;
10144;SDS011;5113;41.822;23.564;2022-11-27T08:36:33;28.60;;;16.10;;
10144;SDS011;5113;41.822;23.564;2022-11-27T08:39:53;23.33;;;12.73;;
10144;SDS011;5113;41.822;23.564;2022-11-27T08:42:59;14.90;;;8.13;;
10144;SDS011;5113;41.822;23.564;2022-11-27T08:46:06;12.73;;;9.67;;
10144;SDS011;5113;41.822;23.564;2022-11-27T08:49:14;25.73;;;14.97;;
10144;SDS011;5113;41.822;23.564;2022-11-27T08:52:20;20.33;;;13.37;;
10144;SDS011;5113;41.822;23.564;2022-11-27T08:55:26;21.37;;;9.83;;
10144;SDS011;5113;41.822;23.564;2022-11-27T08:58:33;17.50;;;9.17;;
10144;SDS011;5113;41.822;23.564;2022-11-27T09:01:39;10.47;;;8.03;;
10144;SDS011;5113;41.822;23.564;2022-11-27T09:04:47;12.63;;;8.93;;
10144;SDS011;5113;41.822;23.564;2022-11-27T09:07:53;11.63;;;7.67;;
10144;SDS011;5113;41.822;23.564;2022-11-27T09:11:00;10.03;;;7.17;;
10144;SDS011;5113;41.822;23.564;2022-11-27T09:14:07;7.47;;;6.10;;
10144;SDS011;5113;41.822;23.564;2022-11-27T09:17:14;10.43;;;7.63;;
10144;SDS011;5113;41.822;23.564;2022-11-27T09:20:22;14.80;;;10.47;;
10144;SDS011;5113;41.822;23.564;2022-11-27T09:23:28;19.33;;;9.50;;
10144;SDS011;5113;41.822;23.564;2022-11-27T09:26:35;12.07;;;7.03;;
10144;SDS011;5113;41.822;23.564;2022-11-27T09:29:41;17.03;;;5.90;;
10144;SDS011;5113;41.822;23.564;2022-11-27T09:32:47;11.87;;;7.77;;
10144;SDS011;5113;41.822;23.564;2022-11-27T09:35:55;8.00;;;5.87;;
10144;SDS011;5113;41.822;23.564;2022-11-27T09:39:01;12.77;;;7.47;;
10144;SDS011;5113;41.822;23.564;2022-11-27T09:42:19;8.60;;;5.10;;
10144;SDS011;5113;41.822;23.564;2022-11-27T09:45:38;12.60;;;6.60;;
10144;SDS011;5113;41.822;23.564;2022-11-27T09:48:49;10.53;;;6.30;;
10144;SDS011;5113;41.822;23.564;2022-11-27T09:52:00;7.17;;;5.63;;
10144;SDS011;5113;41.822;23.564;2022-11-27T09:55:13;6.77;;;4.90;;
10144;SDS011;5113;41.822;23.564;2022-11-27T09:58:25;7.57;;;5.50;;
10144;SDS011;5113;41.822;23.564;2022-11-27T10:01:42;14.37;;;7.87;;
10144;SDS011;5113;41.822;23.564;2022-11-27T10:04:54;12.33;;;9.80;;
10144;SDS011;5113;41.822;23.564;2022-11-27T10:08:22;18.10;;;8.17;;
10144;SDS011;5113;41.822;23.564;2022-11-27T10:11:35;6.60;;;5.10;;
10144;SDS011;5113;41.822;23.564;2022-11-27T10:14:55;11.63;;;8.33;;
10144;SDS011;5113;41.822;23.564;2022-11-27T10:18:11;10.53;;;7.80;;
10144;SDS011;5113;41.822;23.564;2022-11-27T10:21:28;10.50;;;8.37;;
10144;SDS011;5113;41.822;23.564;2022-11-27T10:24:58;10.83;;;6.83;;
10144;SDS011;5113;41.822;23.564;2022-11-27T10:28:18;10.30;;;5.97;;
10144;SDS011;5113;41.822;23.564;2022-11-27T10:31:32;10.70;;;7.17;;
10144;SDS011;5113;41.822;23.564;2022-11-27T10:34:42;18.97;;;7.97;;
10144;SDS011;5113;41.822;23.564;2022-11-27T10:37:52;16.43;;;8.33;;
10144;SDS011;5113;41.822;23.564;2022-11-27T10:41:11;9.90;;;6.17;;
10144;SDS011;5113;41.822;23.564;2022-11-27T10:44:43;13.30;;;7.90;;
10144;SDS011;5113;41.822;23.564;2022-11-27T10:47:53;10.23;;;7.40;;
10144;SDS011;5113;41.822;23.564;2022-11-27T10:51:00;7.77;;;5.93;;
10144;SDS011;5113;41.822;23.564;2022-11-27T10:54:06;12.60;;;8.00;;
10144;SDS011;5113;41.822;23.564;2022-11-27T10:57:34;14.17;;;10.17;;
10144;SDS011;5113;41.822;23.564;2022-11-27T11:00:58;7.50;;;5.60;;
10144;SDS011;5113;41.822;23.564;2022-11-27T11:04:06;15.73;;;7.63;;
10144;SDS011;5113;41.822;23.564;2022-11-27T11:07:33;7.63;;;5.70;;
10144;SDS011;5113;41.822;23.564;2022-11-27T11:10:56;10.80;;;6.67;;
10144;SDS011;5113;41.822;23.564;2022-11-27T11:14:12;4.20;;;3.70;;
10144;SDS011;5113;41.822;23.564;2022-11-27T11:17:23;8.93;;;6.20;;
10144;SDS011;5113;41.822;23.564;2022-11-27T11:20:31;8.17;;;6.37;;
10144;SDS011;5113;41.822;23.564;2022-11-27T11:23:38;8.03;;;5.73;;
10144;SDS011;5113;41.822;23.564;2022-11-27T11:26:46;7.93;;;4.43;;
10144;SDS011;5113;41.822;23.564;2022-11-27T11:29:56;9.37;;;5.57;;
10144;SDS011;5113;41.822;23.564;2022-11-27T11:33:04;6.40;;;5.13;;
10144;SDS011;5113;41.822;23.564;2022-11-27T11:36:16;6.70;;;4.27;;
10144;SDS011;5113;41.822;23.564;2022-11-27T11:39:23;24.50;;;10.90;;
10144;SDS011;5113;41.822;23.564;2022-11-27T11:42:32;6.43;;;4.80;;
10144;SDS011;5113;41.822;23.564;2022-11-27T11:45:44;5.77;;;4.97;;
10144;SDS011;5113;41.822;23.564;2022-11-27T11:48:56;6.70;;;5.50;;
10144;SDS011;5113;41.822;23.564;2022-11-27T11:52:10;7.40;;;5.47;;
10144;SDS011;5113;41.822;23.564;2022-11-27T11:55:30;7.90;;;7.13;;
10144;SDS011;5113;41.822;23.564;2022-11-27T11:58:49;8.30;;;5.30;;
10144;SDS011;5113;41.822;23.564;2022-11-27T12:02:13;8.17;;;3.30;;
10144;SDS011;5113;41.822;23.564;2022-11-27T12:05:32;10.20;;;9.03;;
10144;SDS011;5113;41.822;23.564;2022-11-27T12:08:50;18.90;;;12.77;;
10144;SDS011;5113;41.822;23.564;2022-11-27T12:12:15;16.23;;;7.33;;
10144;SDS011;5113;41.822;23.564;2022-11-27T12:15:32;13.53;;;6.73;;
10144;SDS011;5113;41.822;23.564;2022-11-27T12:18:47;21.23;;;7.80;;
10144;SDS011;5113;41.822;23.564;2022-11-27T12:22:10;13.07;;;7.13;;
10144;SDS011;5113;41.822;23.564;2022-11-27T12:25:27;6.50;;;5.30;;
10144;SDS011;5113;41.822;23.564;2022-11-27T12:28:47;4.67;;;4.30;;
10144;SDS011;5113;41.822;23.564;2022-11-27T12:32:07;5.37;;;3.90;;
10144;SDS011;5113;41.822;23.564;2022-11-27T12:35:40;5.17;;;4.40;;
10144;SDS011;5113;41.822;23.564;2022-11-27T12:38:54;3.00;;;2.80;;
10144;SDS011;5113;41.822;23.564;2022-11-27T12:42:16;3.70;;;3.37;;
10144;SDS011;5113;41.822;23.564;2022-11-27T12:45:29;7.40;;;4.23;;
10144;SDS011;5113;41.822;23.564;2022-11-27T12:48:40;4.70;;;4.03;;
10144;SDS011;5113;41.822;23.564;2022-11-27T12:51:52;5.33;;;4.27;;
10144;SDS011;5113;41.822;23.564;2022-11-27T12:55:04;9.30;;;6.03;;
10144;SDS011;5113;41.822;23.564;2022-11-27T12:58:16;8.57;;;5.07;;
10144;SDS011;5113;41.822;23.564;2022-11-27T13:01:33;5.30;;;3.50;;
10144;SDS011;5113;41.822;23.564;2022-11-27T13:04:45;3.77;;;3.20;;
10144;SDS011;5113;41.822;23.564;2022-11-27T13:07:58;10.93;;;6.80;;
10144;SDS011;5113;41.822;23.564;2022-11-27T13:11:08;9.50;;;7.43;;
10144;SDS011;5113;41.822;23.564;2022-11-27T13:14:18;4.80;;;4.40;;
10144;SDS011;5113;41.822;23.564;2022-11-27T13:17:31;6.57;;;4.80;;
10144;SDS011;5113;41.822;23.564;2022-11-27T13:20:40;7.63;;;5.90;;
10144;SDS011;5113;41.822;23.564;2022-11-27T13:23:53;12.90;;;7.37;;
10144;SDS011;5113;41.822;23.564;2022-11-27T13:27:00;29.80;;;14.60;;
10144;SDS011;5113;41.822;23.564;2022-11-27T13:30:17;100.40;;;38.03;;
10144;SDS011;5113;41.822;23.564;2022-11-27T13:33:29;51.23;;;21.57;;
10144;SDS011;5113;41.822;23.564;2022-11-27T13:36:40;19.07;;;8.83;;
10144;SDS011;5113;41.822;23.564;2022-11-27T13:39:56;10.57;;;7.27;;
10144;SDS011;5113;41.822;23.564;2022-11-27T13:43:05;4.97;;;4.27;;
10144;SDS011;5113;41.822;23.564;2022-11-27T13:46:24;8.97;;;4.83;;
10144;SDS011;5113;41.822;23.564;2022-11-27T13:49:33;8.20;;;5.40;;
10144;SDS011;5113;41.822;23.564;2022-11-27T13:52:51;11.63;;;6.37;;
10144;SDS011;5113;41.822;23.564;2022-11-27T13:56:02;7.70;;;4.47;;
10144;SDS011;5113;41.822;23.564;2022-11-27T13:59:14;17.37;;;8.60;;
10144;SDS011;5113;41.822;23.564;2022-11-27T14:02:21;11.97;;;7.70;;
10144;SDS011;5113;41.822;23.564;2022-11-27T14:05:35;12.50;;;6.43;;
10144;SDS011;5113;41.822;23.564;2022-11-27T14:08:48;13.33;;;6.40;;
10144;SDS011;5113;41.822;23.564;2022-11-27T14:12:02;18.57;;;9.37;;
10144;SDS011;5113;41.822;23.564;2022-11-27T14:15:21;13.17;;;8.23;;
10144;SDS011;5113;41.822;23.564;2022-11-27T14:18:47;9.73;;;6.07;;
10144;SDS011;5113;41.822;23.564;2022-11-27T14:21:55;8.43;;;6.30;;
10144;SDS011;5113;41.822;23.564;2022-11-27T14:25:15;10.50;;;6.43;;
10144;SDS011;5113;41.822;23.564;2022-11-27T14:28:26;9.13;;;7.03;;
10144;SDS011;5113;41.822;23.564;2022-11-27T14:31:34;6.67;;;5.50;;
10144;SDS011;5113;41.822;23.564;2022-11-27T14:34:41;75.27;;;28.97;;
10144;SDS011;5113;41.822;23.564;2022-11-27T14:37:47;30.77;;;15.23;;
10144;SDS011;5113;41.822;23.564;2022-11-27T14:40:54;15.73;;;9.17;;
10144;SDS011;5113;41.822;23.564;2022-11-27T14:44:14;13.93;;;8.27;;
10144;SDS011;5113;41.822;23.564;2022-11-27T14:47:34;27.80;;;14.83;;
10144;SDS011;5113;41.822;23.564;2022-11-27T14:50:43;23.00;;;14.47;;
10144;SDS011;5113;41.822;23.564;2022-11-27T14:54:03;30.57;;;15.73;;
10144;SDS011;5113;41.822;23.564;2022-11-27T14:57:16;13.03;;;7.13;;
10144;SDS011;5113;41.822;23.564;2022-11-27T15:00:29;17.60;;;10.57;;
10144;SDS011;5113;41.822;23.564;2022-11-27T15:03:36;8.03;;;6.10;;
10144;SDS011;5113;41.822;23.564;2022-11-27T15:06:43;33.63;;;11.27;;
10144;SDS011;5113;41.822;23.564;2022-11-27T15:09:51;22.37;;;11.43;;
10144;SDS011;5113;41.822;23.564;2022-11-27T15:12:59;27.23;;;15.40;;
10144;SDS011;5113;41.822;23.564;2022-11-27T15:16:12;18.50;;;10.67;;
10144;SDS011;5113;41.822;23.564;2022-11-27T15:19:23;14.67;;;10.70;;
10144;SDS011;5113;41.822;23.564;2022-11-27T15:22:34;24.23;;;12.77;;
10144;SDS011;5113;41.822;23.564;2022-11-27T15:25:42;19.83;;;10.80;;
10144;SDS011;5113;41.822;23.564;2022-11-27T15:28:50;19.23;;;9.17;;
10144;SDS011;5113;41.822;23.564;2022-11-27T15:31:59;44.13;;;22.33;;
10144;SDS011;5113;41.822;23.564;2022-11-27T15:35:27;26.07;;;13.20;;
10144;SDS011;5113;41.822;23.564;2022-11-27T15:39:02;34.67;;;18.03;;
10144;SDS011;5113;41.822;23.564;2022-11-27T15:42:10;19.30;;;11.40;;
10144;SDS011;5113;41.822;23.564;2022-11-27T15:45:18;27.63;;;14.13;;
10144;SDS011;5113;41.822;23.564;2022-11-27T15:48:26;34.47;;;19.87;;
10144;SDS011;5113;41.822;23.564;2022-11-27T15:51:32;33.60;;;16.00;;
10144;SDS011;5113;41.822;23.564;2022-11-27T15:54:38;44.47;;;19.03;;
10144;SDS011;5113;41.822;23.564;2022-11-27T15:57:44;69.80;;;26.03;;
10144;SDS011;5113;41.822;23.564;2022-11-27T16:00:51;27.40;;;15.40;;
10144;SDS011;5113;41.822;23.564;2022-11-27T16:03:59;22.03;;;12.00;;
10144;SDS011;5113;41.822;23.564;2022-11-27T16:07:05;26.90;;;15.40;;
10144;SDS011;5113;41.822;23.564;2022-11-27T16:10:11;18.87;;;10.80;;
10144;SDS011;5113;41.822;23.564;2022-11-27T16:13:17;18.97;;;12.77;;
10144;SDS011;5113;41.822;23.564;2022-11-27T16:16:24;18.43;;;13.10;;
10144;SDS011;5113;41.822;23.564;2022-11-27T16:19:32;13.93;;;9.43;;
10144;SDS011;5113;41.822;23.564;2022-11-27T16:22:38;63.83;;;28.50;;
10144;SDS011;5113;41.822;23.564;2022-11-27T16:25:44;15.47;;;8.33;;
10144;SDS011;5113;41.822;23.564;2022-11-27T16:28:51;26.00;;;13.77;;
10144;SDS011;5113;41.822;23.564;2022-11-27T16:31:57;32.93;;;14.20;;
10144;SDS011;5113;41.822;23.564;2022-11-27T16:35:06;41.43;;;16.03;;
10144;SDS011;5113;41.822;23.564;2022-11-27T16:38:13;55.20;;;23.73;;
10144;SDS011;5113;41.822;23.564;2022-11-27T16:41:20;41.37;;;21.17;;
10144;SDS011;5113;41.822;23.564;2022-11-27T16:44:27;29.93;;;16.00;;
10144;SDS011;5113;41.822;23.564;2022-11-27T16:47:33;29.27;;;18.63;;
10144;SDS011;5113;41.822;23.564;2022-11-27T16:50:43;34.73;;;18.67;;
10144;SDS011;5113;41.822;23.564;2022-11-27T16:53:50;53.23;;;26.17;;
10144;SDS011;5113;41.822;23.564;2022-11-27T16:56:58;56.30;;;23.63;;
10144;SDS011;5113;41.822;23.564;2022-11-27T17:00:05;32.07;;;15.57;;
10144;SDS011;5113;41.822;23.564;2022-11-27T17:03:12;28.67;;;14.50;;
10144;SDS011;5113;41.822;23.564;2022-11-27T17:06:20;27.57;;;16.07;;
10144;SDS011;5113;41.822;23.564;2022-11-27T17:09:27;41.63;;;18.93;;
10144;SDS011;5113;41.822;23.564;2022-11-27T17:12:35;44.50;;;22.23;;
10144;SDS011;5113;41.822;23.564;2022-11-27T17:15:42;39.70;;;17.80;;
10144;SDS011;5113;41.822;23.564;2022-11-27T17:19:02;32.50;;;20.23;;
10144;SDS011;5113;41.822;23.564;2022-11-27T17:22:10;32.83;;;17.90;;
10144;SDS011;5113;41.822;23.564;2022-11-27T17:25:17;34.03;;;19.43;;
10144;SDS011;5113;41.822;23.564;2022-11-27T17:28:23;38.17;;;20.67;;
10144;SDS011;5113;41.822;23.564;2022-11-27T17:31:30;39.33;;;20.77;;
10144;SDS011;5113;41.822;23.564;2022-11-27T17:34:39;30.77;;;18.97;;
10144;SDS011;5113;41.822;23.564;2022-11-27T17:37:47;26.03;;;16.53;;
10144;SDS011;5113;41.822;23.564;2022-11-27T17:40:57;31.77;;;15.93;;
10144;SDS011;5113;41.822;23.564;2022-11-27T17:44:05;39.77;;;17.10;;
10144;SDS011;5113;41.822;23.564;2022-11-27T17:47:12;29.27;;;16.20;;
10144;SDS011;5113;41.822;23.564;2022-11-27T17:50:18;35.93;;;17.47;;
10144;SDS011;5113;41.822;23.564;2022-11-27T17:53:26;21.77;;;13.00;;
10144;SDS011;5113;41.822;23.564;2022-11-27T17:56:33;40.03;;;18.10;;
10144;SDS011;5113;41.822;23.564;2022-11-27T17:59:39;31.80;;;17.67;;
10144;SDS011;5113;41.822;23.564;2022-11-27T18:02:46;38.47;;;17.20;;
10144;SDS011;5113;41.822;23.564;2022-11-27T18:05:52;45.17;;;19.73;;
10144;SDS011;5113;41.822;23.564;2022-11-27T18:09:01;32.77;;;17.07;;
10144;SDS011;5113;41.822;23.564;2022-11-27T18:12:08;30.80;;;15.60;;
10144;SDS011;5113;41.822;23.564;2022-11-27T18:15:15;39.50;;;17.80;;
10144;SDS011;5113;41.822;23.564;2022-11-27T18:18:32;26.03;;;13.60;;
10144;SDS011;5113;41.822;23.564;2022-11-27T18:21:52;23.07;;;11.97;;
10144;SDS011;5113;41.822;23.564;2022-11-27T18:25:00;22.87;;;13.53;;
10144;SDS011;5113;41.822;23.564;2022-11-27T18:28:06;35.17;;;18.23;;
10144;SDS011;5113;41.822;23.564;2022-11-27T18:31:13;28.07;;;13.93;;
10144;SDS011;5113;41.822;23.564;2022-11-27T18:34:20;25.87;;;12.20;;
10144;SDS011;5113;41.822;23.564;2022-11-27T18:37:26;22.20;;;11.27;;
10144;SDS011;5113;41.822;23.564;2022-11-27T18:40:35;19.30;;;10.87;;
10144;SDS011;5113;41.822;23.564;2022-11-27T18:43:45;18.70;;;13.07;;
10144;SDS011;5113;41.822;23.564;2022-11-27T18:46:52;58.77;;;27.50;;